Time;durP1;ratioP1;P1;durP2;ratioP2;P2;SDS_P1;SDS_P2;PMS_P1;PMS_P2;Temp;Humidity;BMP_temperature;BMP_pressure;BME280_temperature;BME280_humidity;BME280_pressure;Samples;Min_cycle;Max_cycle;Signal;HPM_P1;HPM_P2
2022/07/07 00:02:24;;;;;;;1.60;1.50;;;23.30;46.70;;;;;;4940721;29;20278;-55
2022/07/07 00:04:50;;;;;;;1.83;1.73;;;23.30;46.70;;;;;;4938707;29;20214;-55
2022/07/07 00:07:15;;;;;;;1.63;1.50;;;23.30;46.70;;;;;;4935057;29;20661;-56
2022/07/07 00:09:41;;;;;;;1.50;1.40;;;23.30;46.70;;;;;;4938172;29;20274;-56
2022/07/07 00:12:07;;;;;;;1.70;1.60;;;23.30;46.70;;;;;;4931374;29;20241;-59
2022/07/07 00:14:33;;;;;;;1.63;1.53;;;23.30;46.70;;;;;;4935252;29;20199;-59
2022/07/07 00:16:59;;;;;;;1.77;1.67;;;23.30;46.70;;;;;;4934566;29;20183;-57
2022/07/07 00:19:25;;;;;;;1.60;1.50;;;23.30;46.70;;;;;;4937633;29;20441;-56
2022/07/07 00:21:51;;;;;;;1.47;1.37;;;23.30;46.80;;;;;;4935243;29;20456;-56
2022/07/07 00:24:17;;;;;;;1.80;1.70;;;23.30;46.70;;;;;;4936979;28;20194;-61
2022/07/07 00:26:42;;;;;;;1.67;1.57;;;23.30;46.70;;;;;;4934403;29;20195;-60
2022/07/07 00:29:08;;;;;;;1.73;1.63;;;23.30;46.70;;;;;;4935081;29;20318;-58
2022/07/07 00:31:33;;;;;;;1.80;1.60;;;23.30;46.80;;;;;;4931960;29;20217;-60
2022/07/07 00:33:59;;;;;;;1.80;1.70;;;23.30;46.70;;;;;;4936630;29;20187;-57
2022/07/07 00:36:25;;;;;;;1.70;1.60;;;23.30;46.80;;;;;;4931854;29;20187;-56
2022/07/07 00:38:50;;;;;;;1.60;1.50;;;23.30;46.80;;;;;;4937778;29;20191;-55
2022/07/07 00:41:16;;;;;;;1.67;1.57;;;23.30;46.80;;;;;;4937936;29;20193;-55
2022/07/07 00:43:43;;;;;;;1.70;1.60;;;23.30;46.70;;;;;;4937331;29;20187;-57
2022/07/07 00:46:09;;;;;;;1.87;1.77;;;23.30;46.70;;;;;;4934108;29;20197;-55
2022/07/07 00:48:38;;;;;;;2.10;1.90;;;23.30;47.60;;;;;;4932415;29;20436;-59
2022/07/07 00:51:05;;;;;;;2.03;1.93;;;23.30;46.80;;;;;;4937272;29;20472;-61
2022/07/07 00:53:31;;;;;;;1.77;1.67;;;23.30;46.70;;;;;;4935482;29;20472;-58
2022/07/07 00:55:56;;;;;;;1.70;1.60;;;23.30;46.80;;;;;;4931550;29;20422;-55
2022/07/07 00:58:22;;;;;;;1.70;1.60;;;23.30;46.70;;;;;;4934006;29;20187;-58
2022/07/07 01:00:48;;;;;;;1.60;1.50;;;23.30;46.70;;;;;;4935779;29;20195;-55
2022/07/07 01:03:14;;;;;;;1.70;1.60;;;23.30;46.80;;;;;;4935672;29;20186;-55
2022/07/07 01:05:41;;;;;;;1.67;1.57;;;23.30;46.80;;;;;;4934309;29;20429;-56
2022/07/07 01:08:08;;;;;;;1.70;1.60;;;23.30;46.70;;;;;;4935672;29;20646;-56
2022/07/07 01:10:35;;;;;;;1.90;1.80;;;23.30;46.80;;;;;;4937525;29;20421;-58
2022/07/07 01:13:04;;;;;;;1.67;1.57;;;23.30;46.70;;;;;;4934251;29;20464;-55
2022/07/07 01:15:30;;;;;;;1.80;1.43;;;23.30;46.70;;;;;;4933213;29;20798;-57
2022/07/07 01:17:56;;;;;;;1.60;1.50;;;23.30;46.80;;;;;;4933724;29;20771;-56
2022/07/07 01:20:22;;;;;;;1.60;1.50;;;23.30;46.70;;;;;;4932110;29;20437;-55
2022/07/07 01:22:51;;;;;;;1.73;1.63;;;23.30;46.70;;;;;;4932936;29;20441;-56
2022/07/07 01:25:17;;;;;;;1.70;1.60;;;23.30;46.70;;;;;;4934147;29;20441;-56
2022/07/07 01:27:42;;;;;;;1.50;1.40;;;23.30;46.80;;;;;;4934072;29;20432;-56
2022/07/07 01:30:08;;;;;;;1.60;1.50;;;23.30;46.80;;;;;;4935856;29;20541;-60
2022/07/07 01:32:34;;;;;;;1.70;1.60;;;23.30;46.70;;;;;;4932759;29;20306;-57
2022/07/07 01:35:00;;;;;;;1.70;1.60;;;23.30;46.80;;;;;;4937862;29;20670;-56
2022/07/07 01:37:26;;;;;;;1.63;1.53;;;23.30;46.80;;;;;;4943155;29;20190;-57
2022/07/07 01:39:52;;;;;;;1.63;1.53;;;23.30;46.80;;;;;;4941259;29;20192;-55
2022/07/07 01:42:18;;;;;;;1.60;1.50;;;23.30;46.80;;;;;;4938315;29;20226;-56
2022/07/07 01:44:44;;;;;;;1.60;1.50;;;23.30;46.80;;;;;;4943262;29;20824;-55
2022/07/07 01:47:12;;;;;;;1.50;1.40;;;23.30;46.70;;;;;;4940656;29;20195;-60
2022/07/07 01:49:38;;;;;;;1.60;1.50;;;23.30;46.80;;;;;;4939066;29;20443;-58
2022/07/07 01:52:05;;;;;;;1.67;1.57;;;23.30;46.80;;;;;;4937355;29;20602;-56
2022/07/07 01:54:32;;;;;;;1.60;1.50;;;23.30;46.80;;;;;;4942852;28;20437;-57
2022/07/07 01:56:58;;;;;;;1.70;1.60;;;23.30;46.80;;;;;;4939792;29;20799;-55
2022/07/07 01:59:24;;;;;;;1.63;1.53;;;23.30;46.90;;;;;;4944876;29;20417;-56
2022/07/07 02:01:50;;;;;;;1.63;1.53;;;23.30;46.80;;;;;;4938096;29;20447;-55
2022/07/07 02:04:16;;;;;;;1.70;1.60;;;23.30;46.80;;;;;;4942015;29;20194;-57
2022/07/07 02:06:42;;;;;;;1.90;1.57;;;23.30;46.80;;;;;;4939561;29;20519;-55
2022/07/07 02:09:08;;;;;;;1.57;1.47;;;23.30;46.90;;;;;;4939229;29;20486;-58
2022/07/07 02:11:34;;;;;;;1.73;1.63;;;23.30;46.90;;;;;;4944322;29;20831;-56
2022/07/07 02:14:00;;;;;;;1.50;1.40;;;23.30;46.80;;;;;;4941697;29;20186;-56
2022/07/07 02:16:26;;;;;;;1.80;1.70;;;23.30;46.80;;;;;;4942739;29;20954;-56
2022/07/07 02:18:54;;;;;;;1.70;1.60;;;23.30;46.80;;;;;;4938413;29;20461;-55
2022/07/07 02:21:20;;;;;;;1.60;1.50;;;23.30;46.80;;;;;;4938952;29;20191;-55
2022/07/07 02:23:47;;;;;;;1.40;1.30;;;23.30;46.80;;;;;;4940221;29;20441;-55
2022/07/07 02:26:13;;;;;;;1.50;1.40;;;23.30;46.80;;;;;;4941797;29;20440;-56
2022/07/07 02:28:40;;;;;;;1.47;1.37;;;23.30;46.80;;;;;;4939657;29;20430;-58
2022/07/07 02:31:06;;;;;;;1.80;1.70;;;23.30;46.80;;;;;;4938306;29;20515;-56
2022/07/07 02:33:32;;;;;;;1.47;1.37;;;23.30;46.80;;;;;;4941276;29;20507;-60
2022/07/07 02:35:58;;;;;;;1.70;1.60;;;23.30;46.90;;;;;;4942450;29;20580;-56
2022/07/07 02:38:25;;;;;;;1.47;1.37;;;23.30;46.80;;;;;;4939685;29;20391;-60
2022/07/07 02:40:51;;;;;;;1.50;1.40;;;23.30;47.00;;;;;;4940063;29;20429;-55
2022/07/07 02:43:18;;;;;;;1.60;1.50;;;23.30;46.90;;;;;;4940380;29;20982;-56
2022/07/07 02:45:46;;;;;;;1.97;1.87;;;23.30;46.90;;;;;;4941101;28;20961;-58
2022/07/07 02:48:14;;;;;;;1.60;1.50;;;23.30;46.80;;;;;;4936793;29;20441;-55
2022/07/07 02:50:40;;;;;;;1.60;1.50;;;23.30;46.90;;;;;;4939169;29;20444;-56
2022/07/07 02:53:06;;;;;;;1.43;1.33;;;23.30;47.00;;;;;;4937366;29;20804;-55
2022/07/07 02:55:32;;;;;;;1.40;1.30;;;23.30;47.00;;;;;;4936458;29;20528;-56
2022/07/07 02:58:02;;;;;;;1.50;1.40;;;23.30;46.90;;;;;;4939297;29;20535;-55
2022/07/07 03:00:29;;;;;;;1.50;1.40;;;23.30;46.90;;;;;;4942679;29;20246;-55
2022/07/07 03:02:55;;;;;;;1.60;1.50;;;23.30;47.00;;;;;;4937661;29;20425;-56
2022/07/07 03:05:22;;;;;;;1.60;1.50;;;23.30;46.90;;;;;;4937574;29;20420;-55
2022/07/07 03:07:47;;;;;;;1.57;1.47;;;23.30;47.00;;;;;;4936446;29;20438;-57
2022/07/07 03:10:14;;;;;;;1.70;1.60;;;23.30;47.00;;;;;;4939450;29;20444;-56
2022/07/07 03:12:40;;;;;;;1.60;1.50;;;23.30;47.00;;;;;;4935419;29;20218;-57
2022/07/07 03:15:07;;;;;;;1.60;1.50;;;23.30;47.00;;;;;;4938056;29;20436;-58
2022/07/07 03:17:32;;;;;;;1.37;1.27;;;23.30;47.00;;;;;;4939245;29;20436;-59
2022/07/07 03:19:58;;;;;;;1.60;1.50;;;23.30;47.00;;;;;;4938527;29;20428;-55
2022/07/07 03:22:23;;;;;;;1.53;1.43;;;23.30;47.00;;;;;;4937351;29;20244;-60
2022/07/07 03:24:49;;;;;;;1.57;1.47;;;23.30;47.00;;;;;;4935375;29;20195;-58
2022/07/07 03:27:15;;;;;;;1.60;1.50;;;23.30;47.00;;;;;;4933884;29;20441;-58
2022/07/07 03:29:40;;;;;;;1.70;1.60;;;23.30;47.00;;;;;;4942068;29;20273;-56
2022/07/07 03:32:06;;;;;;;1.50;1.40;;;23.30;47.00;;;;;;4941485;29;20205;-56
2022/07/07 03:34:32;;;;;;;1.50;1.40;;;23.30;47.00;;;;;;4935042;29;20214;-57
2022/07/07 03:36:57;;;;;;;1.60;1.50;;;23.30;47.00;;;;;;4932946;29;20444;-56
2022/07/07 03:39:23;;;;;;;1.47;1.37;;;23.30;47.00;;;;;;4936555;29;20681;-56
2022/07/07 03:41:49;;;;;;;1.40;1.30;;;23.30;47.00;;;;;;4937889;29;20242;-59
2022/07/07 03:44:14;;;;;;;1.40;1.30;;;23.30;47.10;;;;;;4939551;29;20202;-56
2022/07/07 03:46:40;;;;;;;1.40;1.30;;;23.30;47.10;;;;;;4935862;29;20262;-56
2022/07/07 03:49:06;;;;;;;1.43;1.33;;;23.30;47.10;;;;;;4936499;29;20179;-57
2022/07/07 03:51:31;;;;;;;1.43;1.33;;;23.30;47.10;;;;;;4939815;29;20214;-55
2022/07/07 03:53:57;;;;;;;1.50;1.40;;;23.30;47.10;;;;;;4935209;29;20235;-58
2022/07/07 03:56:23;;;;;;;1.40;1.30;;;23.30;47.10;;;;;;4939476;29;20241;-58
2022/07/07 03:58:48;;;;;;;1.57;1.47;;;23.30;47.10;;;;;;4936213;29;20190;-56
2022/07/07 04:01:14;;;;;;;1.40;1.30;;;23.30;47.00;;;;;;4935332;29;20190;-56
2022/07/07 04:03:39;;;;;;;1.30;1.20;;;23.30;47.10;;;;;;4936824;29;20653;-58
2022/07/07 04:06:05;;;;;;;1.53;1.43;;;23.30;47.10;;;;;;4943712;29;20633;-57
2022/07/07 04:08:31;;;;;;;1.50;1.40;;;23.30;47.10;;;;;;4936120;29;20250;-55
2022/07/07 04:10:57;;;;;;;1.47;1.37;;;23.30;47.10;;;;;;4936120;29;20191;-55
2022/07/07 04:13:22;;;;;;;1.33;1.23;;;23.30;47.10;;;;;;4936061;29;20194;-55
2022/07/07 04:15:48;;;;;;;1.50;1.40;;;23.30;47.10;;;;;;4934851;29;20554;-56
2022/07/07 04:18:13;;;;;;;1.30;1.20;;;23.30;47.90;;;;;;4937636;29;20183;-56
2022/07/07 04:20:39;;;;;;;1.63;1.53;;;23.30;47.20;;;;;;4935857;29;20202;-60
2022/07/07 04:23:05;;;;;;;1.47;1.37;;;23.30;47.10;;;;;;4936738;29;20187;-56
2022/07/07 04:25:30;;;;;;;1.50;1.40;;;23.30;47.10;;;;;;4939226;29;20265;-55
2022/07/07 04:27:56;;;;;;;1.70;1.60;;;23.30;47.10;;;;;;4935323;29;20270;-55
2022/07/07 04:30:21;;;;;;;1.47;1.37;;;23.30;47.20;;;;;;4935318;29;20609;-55
2022/07/07 04:32:47;;;;;;;1.37;1.27;;;23.30;47.10;;;;;;4934220;29;20217;-58
2022/07/07 04:35:12;;;;;;;1.73;1.63;;;23.30;47.20;;;;;;4934401;29;20604;-56
2022/07/07 04:37:38;;;;;;;1.40;1.30;;;23.30;47.10;;;;;;4939059;29;20193;-57
2022/07/07 04:40:04;;;;;;;1.60;1.50;;;23.30;47.30;;;;;;4938594;29;20672;-59
2022/07/07 04:42:30;;;;;;;1.47;1.37;;;23.30;47.20;;;;;;4935188;29;20297;-55
2022/07/07 04:44:56;;;;;;;1.40;1.30;;;23.20;47.20;;;;;;4935496;29;20429;-55
2022/07/07 04:47:22;;;;;;;1.40;1.30;;;23.30;47.20;;;;;;4934892;29;20178;-55
2022/07/07 04:49:50;;;;;;;1.40;1.30;;;23.30;47.20;;;;;;4938167;29;20281;-57
2022/07/07 04:52:15;;;;;;;1.50;1.40;;;23.30;47.20;;;;;;4932748;29;20226;-57
2022/07/07 04:54:41;;;;;;;1.43;1.33;;;23.30;48.00;;;;;;4933289;29;20444;-60
2022/07/07 04:57:06;;;;;;;1.40;1.30;;;23.20;47.10;;;;;;4933047;29;20198;-56
2022/07/07 04:59:32;;;;;;;1.50;1.40;;;23.30;47.20;;;;;;4939741;29;20191;-65
2022/07/07 05:01:57;;;;;;;1.50;1.40;;;23.30;47.20;;;;;;4936184;29;20199;-60
2022/07/07 05:04:23;;;;;;;1.30;1.20;;;23.30;47.30;;;;;;4934903;29;20284;-55
2022/07/07 05:06:48;;;;;;;1.30;1.20;;;23.30;47.20;;;;;;4935435;29;20216;-55
2022/07/07 05:09:14;;;;;;;1.50;1.40;;;23.30;47.20;;;;;;4934714;29;20293;-60
2022/07/07 05:11:40;;;;;;;1.40;1.30;;;23.30;47.20;;;;;;4938337;29;20214;-58
2022/07/07 05:14:05;;;;;;;1.63;1.53;;;23.20;47.10;;;;;;4937495;29;20197;-55
2022/07/07 05:16:31;;;;;;;1.83;1.73;;;23.30;47.20;;;;;;4933654;29;20195;-56
2022/07/07 05:18:56;;;;;;;1.30;1.20;;;23.30;47.30;;;;;;4937217;29;20694;-57
2022/07/07 05:21:22;;;;;;;1.30;1.20;;;23.30;47.30;;;;;;4934634;29;20222;-57
2022/07/07 05:23:48;;;;;;;1.40;1.30;;;23.20;47.20;;;;;;4935315;29;20182;-56
2022/07/07 05:26:14;;;;;;;1.30;1.20;;;23.30;47.30;;;;;;4937577;29;20579;-57
2022/07/07 05:28:43;;;;;;;1.40;1.30;;;23.30;47.30;;;;;;4937939;29;20216;-60
2022/07/07 05:31:12;;;;;;;1.40;1.30;;;23.30;47.30;;;;;;4934636;29;20833;-56
2022/07/07 05:33:38;;;;;;;1.63;1.53;;;23.30;47.30;;;;;;4936093;29;20460;-59
2022/07/07 05:36:05;;;;;;;1.30;1.20;;;23.30;47.30;;;;;;4934957;29;20471;-55
2022/07/07 05:38:31;;;;;;;1.30;1.20;;;23.30;47.30;;;;;;4934440;29;20258;-56
2022/07/07 05:40:57;;;;;;;1.47;1.37;;;23.30;47.40;;;;;;4936848;29;20795;-56
2022/07/07 05:43:23;;;;;;;1.47;1.37;;;23.30;47.30;;;;;;4936873;29;20321;-58
2022/07/07 05:45:48;;;;;;;1.40;1.30;;;23.30;47.30;;;;;;4940165;29;20533;-56
2022/07/07 05:48:14;;;;;;;1.30;1.20;;;23.30;47.30;;;;;;4931747;29;20214;-55
2022/07/07 05:50:40;;;;;;;1.57;1.47;;;23.30;47.30;;;;;;4935380;29;20662;-58
2022/07/07 05:53:05;;;;;;;1.43;1.33;;;23.30;48.10;;;;;;4934240;29;20469;-59
2022/07/07 05:55:31;;;;;;;1.30;1.20;;;23.20;47.30;;;;;;4934575;29;20195;-57
2022/07/07 05:57:58;;;;;;;1.40;1.30;;;23.30;47.40;;;;;;4934990;29;20301;-55
2022/07/07 06:00:24;;;;;;;1.40;1.30;;;23.30;47.40;;;;;;4937527;29;20202;-55
2022/07/07 06:02:50;;;;;;;1.47;1.37;;;23.30;47.50;;;;;;4934300;29;20859;-58
2022/07/07 06:05:16;;;;;;;1.40;1.30;;;23.30;47.40;;;;;;4933995;29;20472;-55
2022/07/07 06:07:42;;;;;;;1.40;1.30;;;23.30;47.50;;;;;;4934361;29;20182;-55
2022/07/07 06:10:10;;;;;;;1.40;1.30;;;23.30;47.50;;;;;;4935892;29;20486;-60
2022/07/07 06:12:36;;;;;;;1.53;1.43;;;23.20;47.50;;;;;;4932878;29;20475;-59
2022/07/07 06:15:02;;;;;;;1.40;1.30;;;23.30;47.50;;;;;;4937214;29;20444;-55
2022/07/07 06:17:28;;;;;;;1.40;1.30;;;23.30;47.50;;;;;;4935037;29;20433;-55
2022/07/07 06:19:53;;;;;;;1.00;1.00;;;23.20;47.50;;;;;;4935243;29;20428;-56
2022/07/07 06:22:19;;;;;;;1.33;1.23;;;23.30;47.50;;;;;;4935148;29;20218;-55
2022/07/07 06:24:45;;;;;;;1.30;1.20;;;23.30;47.60;;;;;;4942711;29;20278;-55
2022/07/07 06:27:10;;;;;;;1.50;1.40;;;23.20;47.50;;;;;;4934588;29;20187;-59
2022/07/07 06:29:36;;;;;;;1.50;1.40;;;23.20;47.50;;;;;;4941721;29;20224;-57
2022/07/07 06:32:02;;;;;;;1.30;1.20;;;23.30;47.60;;;;;;4936109;29;20221;-56
2022/07/07 06:34:27;;;;;;;1.30;1.20;;;23.30;47.50;;;;;;4937894;29;20267;-57
2022/07/07 06:36:53;;;;;;;1.20;1.10;;;23.30;47.50;;;;;;4939147;29;20186;-57
2022/07/07 06:39:19;;;;;;;1.30;1.20;;;23.30;47.50;;;;;;4939711;29;20183;-56
2022/07/07 06:41:45;;;;;;;1.50;1.40;;;23.30;48.40;;;;;;4934126;29;21208;-56
2022/07/07 06:44:12;;;;;;;1.30;1.20;;;23.30;47.50;;;;;;4933012;29;20206;-56
2022/07/07 06:46:39;;;;;;;1.57;1.47;;;23.30;47.60;;;;;;4938431;29;20428;-60
2022/07/07 06:49:05;;;;;;;1.30;1.20;;;23.30;47.60;;;;;;4935517;29;20961;-60
2022/07/07 06:51:31;;;;;;;1.50;1.40;;;23.30;47.50;;;;;;4941150;29;20468;-60
2022/07/07 06:53:56;;;;;;;1.60;1.50;;;23.30;47.60;;;;;;4937739;29;20193;-58
2022/07/07 06:56:22;;;;;;;1.33;1.23;;;23.30;47.60;;;;;;4940198;29;20186;-57
2022/07/07 06:58:48;;;;;;;1.30;1.20;;;23.30;47.60;;;;;;4936542;29;20557;-57
2022/07/07 07:01:13;;;;;;;1.40;1.30;;;23.30;47.60;;;;;;4935521;29;20853;-56
2022/07/07 07:03:39;;;;;;;1.20;1.10;;;23.30;47.50;;;;;;4939909;29;20549;-60
2022/07/07 07:06:05;;;;;;;1.27;1.17;;;23.30;47.60;;;;;;4944008;29;20190;-56
2022/07/07 07:08:31;;;;;;;1.43;1.33;;;23.30;47.50;;;;;;4936525;29;20194;-59
2022/07/07 07:10:56;;;;;;;1.40;1.30;;;23.20;47.50;;;;;;4943534;29;20201;-57
2022/07/07 07:13:22;;;;;;;1.50;1.40;;;23.30;47.50;;;;;;4936846;29;20218;-59
2022/07/07 07:15:48;;;;;;;1.33;1.23;;;23.30;47.50;;;;;;4941997;29;20191;-55
2022/07/07 07:18:13;;;;;;;1.40;1.30;;;23.30;47.60;;;;;;4938784;29;20218;-56
2022/07/07 07:20:40;;;;;;;1.13;1.10;;;23.30;47.50;;;;;;4937419;29;20191;-56
2022/07/07 07:23:06;;;;;;;1.40;1.30;;;23.20;47.50;;;;;;4941006;29;20183;-59
2022/07/07 07:25:32;;;;;;;1.30;1.20;;;23.30;47.50;;;;;;4937452;29;20433;-55
2022/07/07 07:27:57;;;;;;;1.33;1.23;;;23.30;47.60;;;;;;4936705;29;21670;-58
2022/07/07 07:30:23;;;;;;;1.23;1.17;;;23.30;47.60;;;;;;4938435;29;20642;-59
2022/07/07 07:32:48;;;;;;;1.30;1.20;;;23.20;47.50;;;;;;4936722;29;20216;-55
2022/07/07 07:35:14;;;;;;;1.30;1.20;;;23.30;47.50;;;;;;4938266;29;20242;-55
2022/07/07 07:37:39;;;;;;;1.40;1.30;;;23.20;47.50;;;;;;4941488;29;20182;-56
2022/07/07 07:40:10;;;;;;;1.40;1.30;;;23.30;47.50;;;;;;4937255;29;20539;-57
2022/07/07 07:42:36;;;;;;;1.10;1.07;;;23.30;47.50;;;;;;4935718;29;20226;-56
2022/07/07 07:45:09;;;;;;;1.20;1.10;;;23.20;47.50;;;;;;4935692;29;20433;-57
2022/07/07 07:47:35;;;;;;;0.97;0.97;;;23.20;47.50;;;;;;4935508;29;20495;-57
2022/07/07 07:50:00;;;;;;;1.23;1.13;;;23.30;47.50;;;;;;4940890;29;20796;-55
2022/07/07 07:52:26;;;;;;;1.30;1.20;;;23.30;47.60;;;;;;4934950;29;20215;-57
2022/07/07 07:54:52;;;;;;;1.30;1.20;;;23.30;47.50;;;;;;4937229;29;20199;-57
2022/07/07 07:57:18;;;;;;;1.20;1.10;;;23.30;47.60;;;;;;4936150;29;20263;-58
2022/07/07 07:59:44;;;;;;;1.13;1.10;;;23.30;47.60;;;;;;4937579;29;20527;-56
2022/07/07 08:02:09;;;;;;;1.40;1.30;;;23.30;47.60;;;;;;4935612;29;20187;-56
2022/07/07 08:04:35;;;;;;;1.40;1.10;;;23.20;47.60;;;;;;4936771;29;20270;-57
2022/07/07 08:07:00;;;;;;;1.00;1.00;;;23.30;47.60;;;;;;4934664;29;20211;-60
2022/07/07 08:09:27;;;;;;;1.77;1.07;;;23.30;47.60;;;;;;4934932;29;20183;-62
2022/07/07 08:11:53;;;;;;;1.33;1.23;;;23.30;47.60;;;;;;4935301;29;20210;-56
2022/07/07 08:14:18;;;;;;;0.90;0.90;;;23.30;47.60;;;;;;4936964;29;20779;-56
2022/07/07 08:16:44;;;;;;;0.90;0.90;;;23.20;47.50;;;;;;4932721;29;20437;-57
2022/07/07 08:19:10;;;;;;;1.30;1.20;;;23.20;47.50;;;;;;4933542;29;20183;-56
2022/07/07 08:21:36;;;;;;;1.30;1.20;;;23.30;47.60;;;;;;4935789;29;20211;-56
2022/07/07 08:24:01;;;;;;;1.20;1.10;;;23.20;47.50;;;;;;4939428;29;20663;-55
2022/07/07 08:26:27;;;;;;;1.30;1.20;;;23.30;47.60;;;;;;4934814;29;20421;-60
2022/07/07 08:28:54;;;;;;;1.10;1.10;;;23.20;47.50;;;;;;4935228;29;20197;-58
2022/07/07 08:31:20;;;;;;;1.20;1.10;;;23.30;47.50;;;;;;4933776;29;20190;-55
2022/07/07 08:33:46;;;;;;;1.23;1.13;;;23.30;47.50;;;;;;4935828;29;20417;-55
2022/07/07 08:36:11;;;;;;;1.27;1.17;;;23.30;47.60;;;;;;4936908;29;20428;-55
2022/07/07 08:38:37;;;;;;;0.97;0.97;;;23.30;47.60;;;;;;4933861;29;20642;-60
2022/07/07 08:41:03;;;;;;;1.17;1.07;;;23.30;47.60;;;;;;4942731;29;20174;-55
2022/07/07 08:43:29;;;;;;;1.10;1.00;;;23.30;47.60;;;;;;4937373;29;20875;-56
2022/07/07 08:45:55;;;;;;;1.23;1.13;;;23.30;48.30;;;;;;4939376;29;20210;-55
2022/07/07 08:48:21;;;;;;;1.30;1.20;;;23.30;47.60;;;;;;4936183;29;20183;-58
2022/07/07 08:50:47;;;;;;;0.97;0.97;;;23.30;47.50;;;;;;4940491;29;21017;-61
2022/07/07 08:53:13;;;;;;;1.27;1.17;;;23.30;47.60;;;;;;4933682;29;20241;-56
2022/07/07 08:55:42;;;;;;;1.20;1.10;;;23.30;47.60;;;;;;4935714;29;20213;-57
2022/07/07 08:58:09;;;;;;;1.43;1.33;;;23.30;47.50;;;;;;4933985;29;20278;-56
2022/07/07 09:00:36;;;;;;;1.30;1.20;;;23.30;47.60;;;;;;4939217;29;20413;-60
2022/07/07 09:03:07;;;;;;;1.00;0.90;;;23.30;47.60;;;;;;4939242;29;20436;-55
2022/07/07 09:05:37;;;;;;;1.20;1.10;;;23.30;47.60;;;;;;4936399;29;20848;-55
2022/07/07 09:08:19;;;;;;;1.13;1.10;;;23.20;47.50;;;;;;4935287;29;20436;-56
2022/07/07 09:10:45;;;;;;;1.00;1.00;;;23.20;47.50;;;;;;4935008;29;20820;-58
2022/07/07 09:13:28;;;;;;;1.20;1.10;;;23.20;47.50;;;;;;4933914;29;20465;-56
2022/07/07 09:15:56;;;;;;;1.20;1.10;;;23.30;47.60;;;;;;4937085;29;20490;-56
2022/07/07 09:18:29;;;;;;;1.20;1.10;;;23.30;47.60;;;;;;4933375;29;20444;-55
2022/07/07 09:20:57;;;;;;;1.20;1.10;;;23.30;47.50;;;;;;4932940;29;20793;-56
2022/07/07 09:23:23;;;;;;;1.20;1.10;;;23.30;47.50;;;;;;4936605;29;20577;-57
2022/07/07 09:25:48;;;;;;;1.40;1.17;;;23.20;47.50;;;;;;4934893;29;20500;-55
2022/07/07 09:28:14;;;;;;;1.10;1.00;;;23.30;47.60;;;;;;4933026;29;20631;-56
2022/07/07 09:30:43;;;;;;;1.20;1.00;;;23.30;47.50;;;;;;4936107;29;20185;-55
2022/07/07 09:33:11;;;;;;;1.33;1.23;;;23.30;47.50;;;;;;4937871;29;20229;-56
2022/07/07 09:38:24;;;;;;;1.80;1.10;;;23.20;47.50;;;;;;4939360;29;20444;-56
2022/07/07 09:41:13;;;;;;;1.50;1.40;;;23.20;47.50;;;;;;4934132;29;20426;-55
2022/07/07 09:43:51;;;;;;;1.13;1.03;;;23.30;47.60;;;;;;4936123;29;20479;-58
2022/07/07 09:46:21;;;;;;;1.00;1.00;;;23.20;47.50;;;;;;4934396;29;21359;-55
2022/07/07 09:48:51;;;;;;;1.20;1.10;;;23.20;47.50;;;;;;4934979;29;20433;-65
2022/07/07 09:51:19;;;;;;;1.20;1.10;;;23.30;47.60;;;;;;4936967;29;20447;-58
2022/07/07 09:54:10;;;;;;;1.27;1.17;;;23.20;47.50;;;;;;4935635;29;20946;-58
2022/07/07 09:56:36;;;;;;;1.10;1.00;;;23.30;47.60;;;;;;4937927;29;20435;-64
2022/07/07 09:59:09;;;;;;;0.90;0.90;;;23.30;47.50;;;;;;4942229;29;20421;-55
2022/07/07 10:01:38;;;;;;;0.90;0.90;;;23.30;47.50;;;;;;4941173;29;20428;-55
2022/07/07 10:04:06;;;;;;;1.30;1.20;;;23.20;47.50;;;;;;4937060;29;20441;-55
2022/07/07 10:06:34;;;;;;;1.07;1.00;;;23.20;47.50;;;;;;4939893;29;20432;-55
2022/07/07 10:09:07;;;;;;;2.03;1.10;;;23.30;47.50;;;;;;4937818;29;20464;-58
2022/07/07 10:11:41;;;;;;;1.13;1.03;;;23.30;47.50;;;;;;4940183;29;20464;-55
2022/07/07 10:14:33;;;;;;;0.93;0.90;;;23.30;47.50;;;;;;4938489;29;20448;-58
2022/07/07 10:17:00;;;;;;;1.10;1.00;;;23.20;47.50;;;;;;4937240;29;21204;-57
2022/07/07 10:19:26;;;;;;;1.10;1.00;;;23.20;47.50;;;;;;4938601;29;20416;-56
2022/07/07 10:21:55;;;;;;;0.97;0.97;;;23.30;47.60;;;;;;4941366;29;21055;-59
2022/07/07 10:24:22;;;;;;;0.93;0.93;;;23.30;47.60;;;;;;4940595;29;20209;-55
2022/07/07 10:26:57;;;;;;;1.10;1.00;;;23.20;47.50;;;;;;4938220;29;20424;-55
2022/07/07 10:29:47;;;;;;;1.10;1.00;;;23.30;47.60;;;;;;4941867;29;20438;-55
2022/07/07 10:32:15;;;;;;;1.13;1.03;;;23.30;48.30;;;;;;4937123;29;20468;-57
2022/07/07 10:34:53;;;;;;;1.70;1.20;;;23.30;47.60;;;;;;4939910;29;20429;-57
2022/07/07 10:37:21;;;;;;;0.93;0.90;;;23.30;47.50;;;;;;4938374;29;20432;-56
2022/07/07 10:39:48;;;;;;;1.10;1.00;;;23.30;47.60;;;;;;4938637;29;20812;-55
2022/07/07 10:42:17;;;;;;;1.30;1.20;;;23.30;47.50;;;;;;4928120;29;20547;-55
2022/07/07 10:44:47;;;;;;;1.10;0.97;;;23.30;47.60;;;;;;4916134;29;20456;-59
2022/07/07 10:47:13;;;;;;;1.10;1.00;;;23.30;47.60;;;;;;4917603;29;20903;-57
2022/07/07 10:49:59;;;;;;;1.10;1.00;;;23.30;47.50;;;;;;4910498;29;20921;-60
2022/07/07 10:52:28;;;;;;;1.40;1.30;;;23.30;47.50;;;;;;4909353;29;20459;-56
2022/07/07 10:55:00;;;;;;;1.30;1.20;;;23.30;47.50;;;;;;4915964;29;20787;-59
2022/07/07 10:57:27;;;;;;;1.20;1.10;;;23.30;47.50;;;;;;4914907;29;20525;-55
2022/07/07 11:00:00;;;;;;;1.20;1.10;;;23.30;47.50;;;;;;4918316;29;20461;-59
2022/07/07 11:02:29;;;;;;;1.00;0.90;;;23.30;47.60;;;;;;4917180;29;20602;-55
2022/07/07 11:04:57;;;;;;;1.10;1.00;;;23.30;47.50;;;;;;4915655;29;20521;-60
2022/07/07 11:07:24;;;;;;;1.30;1.20;;;23.30;47.50;;;;;;4914605;29;20446;-58
2022/07/07 11:09:57;;;;;;;0.80;0.80;;;23.30;48.30;;;;;;4910612;29;20426;-59
2022/07/07 11:12:43;;;;;;;0.80;0.80;;;23.30;47.50;;;;;;4917222;29;20460;-56
2022/07/07 11:15:15;;;;;;;1.00;0.90;;;23.30;47.50;;;;;;4917120;29;20470;-60
2022/07/07 11:17:46;;;;;;;1.40;1.20;;;23.30;47.60;;;;;;4916631;29;20461;-57
2022/07/07 11:20:20;;;;;;;1.17;1.07;;;23.30;47.70;;;;;;4924696;29;20456;-56
2022/07/07 11:22:48;;;;;;;1.10;1.00;;;23.30;47.50;;;;;;4913583;29;20441;-64
2022/07/07 11:25:19;;;;;;;0.90;0.90;;;23.30;47.60;;;;;;4911910;29;20466;-56
2022/07/07 11:27:46;;;;;;;1.03;0.93;;;23.30;47.50;;;;;;4913576;29;20838;-56
2022/07/07 11:30:12;;;;;;;0.97;0.90;;;23.30;47.50;;;;;;4916675;29;20459;-57
2022/07/07 11:32:40;;;;;;;1.20;1.10;;;23.30;47.60;;;;;;4910359;29;20512;-55
2022/07/07 11:35:08;;;;;;;1.00;0.90;;;23.30;47.50;;;;;;4914855;29;20441;-58
2022/07/07 11:37:38;;;;;;;1.07;0.97;;;23.30;47.50;;;;;;4911322;29;20458;-55
2022/07/07 11:40:21;;;;;;;1.00;1.00;;;23.30;47.60;;;;;;4911560;29;20504;-55
2022/07/07 11:42:47;;;;;;;1.00;0.90;;;23.30;47.60;;;;;;4915518;29;20543;-58
2022/07/07 11:45:27;;;;;;;1.10;1.00;;;23.30;47.50;;;;;;4922723;29;20436;-59
2022/07/07 11:47:57;;;;;;;0.87;0.87;;;23.30;47.60;;;;;;4916316;29;20449;-58
2022/07/07 11:50:24;;;;;;;1.00;1.00;;;23.30;47.60;;;;;;4917910;29;20412;-56
2022/07/07 11:52:53;;;;;;;0.80;0.80;;;23.30;47.50;;;;;;4916596;29;20513;-56
2022/07/07 11:55:20;;;;;;;1.17;1.00;;;23.30;47.60;;;;;;4923235;29;20437;-56
2022/07/07 11:57:56;;;;;;;0.93;0.83;;;23.30;47.50;;;;;;4919913;29;20434;-59
2022/07/07 12:00:27;;;;;;;1.00;1.00;;;23.30;47.50;;;;;;4919062;29;20425;-55
2022/07/07 12:02:56;;;;;;;1.20;1.10;;;23.30;47.50;;;;;;4918724;29;20449;-57
2022/07/07 12:05:27;;;;;;;0.90;0.90;;;23.30;47.50;;;;;;4918695;29;20437;-56
2022/07/07 12:07:56;;;;;;;0.80;0.80;;;23.30;47.60;;;;;;4914813;29;20524;-56
2022/07/07 12:10:24;;;;;;;0.90;0.90;;;23.30;47.60;;;;;;4917874;29;20441;-55
2022/07/07 12:13:08;;;;;;;0.90;0.90;;;23.30;47.50;;;;;;4916267;29;20956;-56
2022/07/07 12:15:38;;;;;;;0.90;0.90;;;23.30;47.60;;;;;;4914357;29;20441;-55
2022/07/07 12:18:06;;;;;;;1.00;1.00;;;23.30;47.50;;;;;;4916335;29;20485;-57
2022/07/07 12:20:33;;;;;;;0.97;0.97;;;23.30;47.50;;;;;;4916609;29;20425;-56
2022/07/07 12:23:01;;;;;;;0.80;0.80;;;23.30;47.50;;;;;;4915700;29;20497;-55
2022/07/07 12:25:34;;;;;;;1.00;1.00;;;23.30;47.50;;;;;;4914950;29;21033;-57
2022/07/07 12:28:01;;;;;;;1.00;0.90;;;23.30;47.50;;;;;;4917719;29;20437;-55
2022/07/07 12:30:33;;;;;;;0.90;0.90;;;23.30;47.60;;;;;;4919686;29;20426;-58
2022/07/07 12:33:01;;;;;;;0.90;0.80;;;23.30;47.50;;;;;;4916081;29;20471;-55
2022/07/07 12:35:34;;;;;;;0.90;0.90;;;23.30;47.60;;;;;;4914382;29;20457;-56
2022/07/07 12:38:02;;;;;;;0.80;0.80;;;23.30;47.60;;;;;;4917979;29;20421;-56
2022/07/07 12:40:31;;;;;;;0.80;0.80;;;23.30;47.60;;;;;;4914345;29;20442;-58
2022/07/07 12:43:03;;;;;;;0.73;0.73;;;23.30;47.50;;;;;;4927072;29;20559;-56
2022/07/07 12:45:30;;;;;;;1.20;1.10;;;23.30;47.60;;;;;;4935084;29;20448;-55
2022/07/07 12:47:56;;;;;;;0.90;0.90;;;23.30;47.50;;;;;;4939881;29;20921;-55
2022/07/07 12:50:23;;;;;;;0.90;0.90;;;23.30;47.50;;;;;;4932702;29;20444;-59
2022/07/07 12:53:00;;;;;;;0.97;0.97;;;23.30;47.60;;;;;;4937842;29;20695;-58